Time;durP1;ratioP1;P1;durP2;ratioP2;P2;SDS_P1;SDS_P2;PMS_P1;PMS_P2;Temp;Humidity;BMP_temperature;BMP_pressure;BME280_temperature;BME280_humidity;BME280_pressure;Samples;Min_cycle;Max_cycle;Signal;HPM_P1;HPM_P2
2022/12/26 00:01:42;;;;;;;1.20;0.80;;;9.30;99.90;;;;;;5027180;28;21121;-69
2022/12/26 00:04:09;;;;;;;1.30;1.20;;;9.20;99.90;;;;;;5036547;28;21195;-69
2022/12/26 00:06:38;;;;;;;1.50;1.40;;;9.20;99.90;;;;;;5039961;28;20714;-68
2022/12/26 00:09:06;;;;;;;1.63;1.23;;;9.20;99.90;;;;;;5025807;28;21193;-69
2022/12/26 00:11:33;;;;;;;2.10;1.47;;;9.10;99.90;;;;;;5025122;28;20671;-69
2022/12/26 00:14:03;;;;;;;1.20;1.10;;;9.10;99.90;;;;;;5041247;28;21520;-69
2022/12/26 00:16:30;;;;;;;2.30;0.90;;;9.10;99.90;;;;;;5046474;28;21035;-69
2022/12/26 00:18:57;;;;;;;1.37;1.20;;;9.20;99.90;;;;;;5046031;28;20627;-69
2022/12/26 00:21:26;;;;;;;1.87;1.70;;;9.20;99.90;;;;;;5043809;28;20726;-69
2022/12/26 00:23:55;;;;;;;2.10;1.13;;;9.10;99.90;;;;;;5040459;28;20650;-69
2022/12/26 00:26:23;;;;;;;1.27;1.17;;;8.90;99.90;;;;;;5026116;28;20631;-70
2022/12/26 00:28:50;;;;;;;2.20;0.90;;;9.10;99.90;;;;;;5029211;28;20634;-69
2022/12/26 00:31:19;;;;;;;1.27;1.23;;;9.00;99.90;;;;;;5032522;28;20669;-68
2022/12/26 00:33:47;;;;;;;1.80;1.70;;;9.00;99.90;;;;;;5026121;28;21329;-69
2022/12/26 00:36:16;;;;;;;1.17;0.80;;;8.90;99.90;;;;;;5028642;28;20623;-69
2022/12/26 00:38:44;;;;;;;0.70;0.70;;;9.00;99.90;;;;;;5025785;28;20630;-69
2022/12/26 00:41:14;;;;;;;1.03;0.90;;;9.00;99.90;;;;;;5029097;28;20641;-69
2022/12/26 00:43:41;;;;;;;1.50;1.40;;;9.00;99.90;;;;;;5031168;28;20631;-69
2022/12/26 00:46:08;;;;;;;1.20;1.13;;;8.80;99.90;;;;;;5024944;28;20635;-69
2022/12/26 00:48:35;;;;;;;1.40;1.00;;;8.80;99.90;;;;;;5023925;28;20633;-69
2022/12/26 00:51:02;;;;;;;1.70;1.23;;;8.80;99.90;;;;;;5026071;28;20670;-69
2022/12/26 00:53:29;;;;;;;1.63;1.53;;;8.80;99.90;;;;;;5026055;28;20619;-69
2022/12/26 00:55:56;;;;;;;1.37;1.00;;;8.80;99.90;;;;;;5027408;28;20635;-69
2022/12/26 00:58:25;;;;;;;2.20;1.20;;;8.80;99.90;;;;;;5025940;28;20635;-68
2022/12/26 01:00:52;;;;;;;1.10;1.00;;;8.60;99.90;;;;;;5026396;28;20641;-69
2022/12/26 01:03:19;;;;;;;1.47;1.13;;;8.50;99.90;;;;;;5026459;28;21296;-69
2022/12/26 01:05:48;;;;;;;1.90;1.17;;;8.60;99.90;;;;;;5031735;28;20747;-69
2022/12/26 01:08:15;;;;;;;1.80;1.63;;;8.40;99.90;;;;;;5029423;28;20628;-69
2022/12/26 01:10:43;;;;;;;1.20;1.10;;;8.50;99.90;;;;;;5027106;28;20620;-69
2022/12/26 01:13:10;;;;;;;2.00;1.67;;;8.50;99.90;;;;;;5024892;28;20958;-69
2022/12/26 01:15:38;;;;;;;2.60;1.37;;;8.40;99.90;;;;;;5027182;28;20625;-69
2022/12/26 01:18:05;;;;;;;1.00;0.70;;;8.40;99.90;;;;;;5026231;28;20634;-69
2022/12/26 01:20:32;;;;;;;1.63;1.30;;;8.40;99.90;;;;;;5027913;28;21278;-69
2022/12/26 01:22:58;;;;;;;2.00;1.23;;;8.50;99.90;;;;;;5047370;28;20630;-69
2022/12/26 01:25:25;;;;;;;2.03;1.57;;;8.10;99.90;;;;;;5032313;28;20637;-69
2022/12/26 01:27:52;;;;;;;0.50;0.50;;;8.40;99.90;;;;;;5029881;28;20624;-69
2022/12/26 01:30:19;;;;;;;3.10;1.63;;;8.50;99.90;;;;;;5036217;28;20618;-68
2022/12/26 01:32:47;;;;;;;2.63;1.60;;;8.50;99.90;;;;;;5041105;28;20736;-69
2022/12/26 01:35:14;;;;;;;0.77;0.77;;;8.40;99.90;;;;;;5034129;28;20713;-69
2022/12/26 01:37:41;;;;;;;0.70;0.70;;;8.40;99.90;;;;;;5048932;28;20638;-69
2022/12/26 01:40:08;;;;;;;0.70;0.70;;;8.40;99.90;;;;;;5040281;28;20629;-69
2022/12/26 01:42:41;;;;;;;2.00;1.80;;;8.40;99.90;;;;;;5034367;28;20629;-69
2022/12/26 01:45:21;;;;;;;4.13;1.00;;;8.30;99.90;;;;;;5029256;28;20630;-69
2022/12/26 01:47:54;;;;;;;1.53;1.43;;;8.30;99.90;;;;;;5029358;28;20661;-69
2022/12/26 01:50:29;;;;;;;1.10;0.80;;;8.40;99.90;;;;;;5037807;28;20634;-69
2022/12/26 01:52:58;;;;;;;0.70;0.70;;;8.40;99.90;;;;;;5008361;28;20673;-69
2022/12/26 01:55:26;;;;;;;1.40;1.10;;;8.30;99.90;;;;;;5024234;28;20632;-69
2022/12/26 01:57:57;;;;;;;1.97;1.53;;;8.30;99.90;;;;;;5028226;28;20623;-70
2022/12/26 02:00:24;;;;;;;2.23;0.90;;;8.30;99.90;;;;;;5029198;28;20635;-69
2022/12/26 02:05:39;;;;;;;1.63;0.90;;;8.30;99.90;;;;;;5034837;28;20620;-69
2022/12/26 02:08:09;;;;;;;1.10;0.97;;;8.30;99.90;;;;;;5039637;28;20626;-69
2022/12/26 02:10:44;;;;;;;1.13;0.80;;;8.30;99.90;;;;;;5048517;28;20680;-69
2022/12/26 02:13:12;;;;;;;2.50;1.37;;;8.40;99.90;;;;;;5048152;28;21104;-69
2022/12/26 02:15:41;;;;;;;4.90;1.63;;;8.50;99.90;;;;;;5030679;28;20657;-69
2022/12/26 02:18:10;;;;;;;2.10;2.00;;;8.40;99.90;;;;;;5029027;28;20767;-69
2022/12/26 02:20:44;;;;;;;2.43;1.57;;;8.40;99.90;;;;;;5029044;28;20631;-69
2022/12/26 02:23:56;;;;;;;0.77;0.77;;;8.40;99.90;;;;;;5035738;28;20762;-69
2022/12/26 02:26:58;;;;;;;1.07;1.07;;;8.40;99.90;;;;;;5033938;28;20658;-69
2022/12/26 02:30:11;;;;;;;1.20;0.93;;;8.50;99.90;;;;;;5048840;28;21468;-69
2022/12/26 02:33:15;;;;;;;1.47;0.90;;;8.60;99.90;;;;;;5026118;28;20674;-69
2022/12/26 02:35:58;;;;;;;0.90;0.77;;;8.60;99.90;;;;;;5044615;28;20741;-69
2022/12/26 02:38:36;;;;;;;0.57;0.57;;;8.80;99.90;;;;;;5028656;28;21176;-69
2022/12/26 02:41:18;;;;;;;5.20;1.00;;;8.80;99.90;;;;;;5028867;28;20622;-69
2022/12/26 02:43:53;;;;;;;3.20;1.00;;;8.90;99.90;;;;;;5027435;28;20644;-69
2022/12/26 02:49:20;;;;;;;1.20;1.00;;;8.90;99.90;;;;;;5026931;28;20648;-68
2022/12/26 03:14:44;;;;;;;0.80;0.80;;;9.00;99.90;;;;;;5028833;28;20632;-69
2022/12/26 03:17:24;;;;;;;1.23;1.13;;;9.00;99.90;;;;;;5036387;28;20628;-69
2022/12/26 03:20:02;;;;;;;2.60;1.50;;;9.10;99.90;;;;;;5041914;28;20630;-69
2022/12/26 03:22:37;;;;;;;2.43;0.60;;;9.00;99.90;;;;;;5045187;28;21258;-68
2022/12/26 03:27:55;;;;;;;2.30;0.83;;;9.00;99.90;;;;;;5027095;28;20984;-69
2022/12/26 03:34:15;;;;;;;0.60;0.60;;;9.20;99.90;;;;;;5027610;28;20666;-69
2022/12/26 03:35:56;;;;;;;1.00;1.00;;;9.30;99.90;;;;;;5046720;28;21271;-69
2022/12/26 03:38:31;;;;;;;0.90;0.63;;;9.10;99.90;;;;;;5047179;28;20622;-69
2022/12/26 04:44:12;;;;;;;0.70;0.63;;;9.50;99.90;;;;;;5033659;28;20634;-69
2022/12/26 04:46:44;;;;;;;1.57;0.93;;;9.50;99.90;;;;;;5034365;28;20637;-68
2022/12/26 04:51:59;;;;;;;1.23;0.50;;;9.60;99.90;;;;;;5039243;28;20654;-69
2022/12/26 04:54:26;;;;;;;0.63;0.63;;;9.70;99.90;;;;;;5028251;28;21201;-69
2022/12/26 04:56:53;;;;;;;1.17;0.73;;;9.60;99.90;;;;;;5041176;28;20632;-69
2022/12/26 04:59:21;;;;;;;0.87;0.80;;;9.70;99.90;;;;;;5036744;28;20627;-69
2022/12/26 05:10:07;;;;;;;1.03;0.73;;;9.70;99.90;;;;;;5029512;28;20655;-69
2022/12/26 05:12:34;;;;;;;1.27;1.17;;;9.40;99.90;;;;;;5010925;28;21253;-69
2022/12/26 05:15:01;;;;;;;0.53;0.53;;;9.60;99.90;;;;;;5008794;28;20608;-69
2022/12/26 05:28:42;;;;;;;1.87;0.73;;;9.50;99.90;;;;;;5025882;28;20619;-69
2022/12/26 05:31:10;;;;;;;0.70;0.60;;;9.40;99.90;;;;;;5030049;28;20644;-69
2022/12/26 05:36:25;;;;;;;1.87;1.77;;;9.50;99.90;;;;;;5031889;28;20622;-69
2022/12/26 05:38:52;;;;;;;1.50;1.00;;;9.30;99.90;;;;;;5030134;28;20627;-69
2022/12/26 05:41:19;;;;;;;1.50;0.60;;;9.50;99.90;;;;;;5034721;28;20630;-69
2022/12/26 05:43:45;;;;;;;1.33;1.27;;;9.50;99.90;;;;;;5033649;28;20647;-69
2022/12/26 05:46:12;;;;;;;0.90;0.90;;;;;;;;;;5030195;28;20630;-69
2022/12/26 05:48:41;;;;;;;1.47;1.37;;;9.30;99.90;;;;;;5029657;28;21041;-69
2022/12/26 05:51:07;;;;;;;2.17;1.17;;;9.60;99.90;;;;;;5029535;28;20627;-69
2022/12/26 05:53:34;;;;;;;0.97;0.97;;;10.20;99.90;;;;;;5029611;28;20665;-69
2022/12/26 05:56:05;;;;;;;1.23;1.00;;;9.50;99.90;;;;;;5037352;28;20734;-69
2022/12/26 05:58:32;;;;;;;1.10;1.10;;;9.50;99.90;;;;;;5034107;28;20626;-69
2022/12/26 06:01:07;;;;;;;1.00;0.83;;;9.50;99.90;;;;;;5044577;28;21171;-69
2022/12/26 06:03:35;;;;;;;1.13;1.07;;;9.50;99.90;;;;;;5030433;28;21204;-70
2022/12/26 06:06:04;;;;;;;2.23;1.30;;;9.70;99.90;;;;;;5029348;28;20627;-69
2022/12/26 06:08:31;;;;;;;1.03;0.93;;;9.70;99.90;;;;;;5028510;28;20725;-69
2022/12/26 06:10:57;;;;;;;2.30;1.50;;;9.70;99.90;;;;;;5032745;28;20623;-69
2022/12/26 06:13:25;;;;;;;5.70;1.60;;;9.60;99.90;;;;;;5035372;28;20738;-70
2022/12/26 06:15:52;;;;;;;1.33;1.23;;;9.70;99.90;;;;;;5028433;28;20718;-69
2022/12/26 06:18:19;;;;;;;0.77;0.77;;;;;;;;;;5028094;28;20633;-70
2022/12/26 06:20:46;;;;;;;1.50;0.90;;;9.60;99.90;;;;;;5028941;28;20615;-69
2022/12/26 06:23:14;;;;;;;0.90;0.90;;;9.70;99.90;;;;;;5028852;28;21366;-69
2022/12/26 06:25:41;;;;;;;1.17;1.07;;;9.60;99.90;;;;;;5029335;28;20623;-70
2022/12/26 06:28:09;;;;;;;0.73;0.73;;;9.80;99.90;;;;;;5047789;28;20637;-70
2022/12/26 06:30:36;;;;;;;1.43;1.33;;;9.70;99.90;;;;;;5032918;28;20639;-70
2022/12/26 06:33:03;;;;;;;2.87;1.37;;;9.80;99.90;;;;;;5027743;28;20662;-69
2022/12/26 06:35:29;;;;;;;0.70;0.70;;;9.70;99.90;;;;;;5028672;28;20623;-69
2022/12/26 06:37:56;;;;;;;1.73;1.30;;;10.00;99.90;;;;;;5030132;28;20635;-69
2022/12/26 06:40:25;;;;;;;1.27;0.97;;;9.90;99.90;;;;;;5029743;28;20727;-69
2022/12/26 06:42:51;;;;;;;1.00;0.80;;;9.70;99.90;;;;;;5037417;28;20742;-69
2022/12/26 06:45:19;;;;;;;1.03;1.03;;;9.70;99.90;;;;;;5028274;28;20726;-69
2022/12/26 06:47:46;;;;;;;1.53;1.40;;;9.90;99.90;;;;;;5028866;28;21033;-69
2022/12/26 06:50:13;;;;;;;1.10;0.70;;;10.60;99.90;;;;;;5029894;28;21227;-69
2022/12/26 06:52:39;;;;;;;4.43;0.90;;;10.00;99.90;;;;;;5027352;28;21311;-69
2022/12/26 06:55:07;;;;;;;2.17;1.63;;;10.00;99.90;;;;;;5028401;28;20623;-69
2022/12/26 06:57:35;;;;;;;1.57;1.17;;;9.60;99.90;;;;;;5047387;28;20633;-69
2022/12/26 07:00:02;;;;;;;1.30;0.70;;;9.90;99.90;;;;;;5029490;28;20636;-69
2022/12/26 07:02:29;;;;;;;7.77;1.10;;;9.80;99.90;;;;;;5040529;28;21389;-69
2022/12/26 07:04:56;;;;;;;2.13;1.00;;;10.00;99.90;;;;;;5027491;28;20631;-70
2022/12/26 07:07:23;;;;;;;4.17;0.80;;;;;;;;;;5029298;28;20634;-70
2022/12/26 07:09:50;;;;;;;1.40;1.30;;;9.80;99.90;;;;;;5027505;28;21165;-70
2022/12/26 07:12:19;;;;;;;1.20;1.10;;;9.50;99.90;;;;;;5027111;28;20990;-69
2022/12/26 07:14:48;;;;;;;0.87;0.87;;;9.80;99.90;;;;;;5028212;28;20964;-70
2022/12/26 07:17:15;;;;;;;0.83;0.83;;;;;;;;;;5028994;28;20649;-70
2022/12/26 07:19:42;;;;;;;0.87;0.87;;;10.00;99.90;;;;;;5026855;28;20616;-69
2022/12/26 07:22:09;;;;;;;1.03;0.80;;;9.90;99.90;;;;;;5030741;28;20765;-70
2022/12/26 07:24:36;;;;;;;1.03;1.00;;;10.00;99.90;;;;;;5025156;28;20633;-70
2022/12/26 07:27:03;;;;;;;1.90;1.33;;;10.00;99.90;;;;;;5027236;28;20628;-69
2022/12/26 07:29:29;;;;;;;2.20;2.10;;;9.90;99.90;;;;;;5027418;28;20633;-70
2022/12/26 07:31:58;;;;;;;1.37;1.27;;;10.00;99.90;;;;;;5023941;28;20631;-69
2022/12/26 07:34:25;;;;;;;1.60;1.43;;;10.20;99.90;;;;;;5026776;28;20654;-69
2022/12/26 07:36:52;;;;;;;0.53;0.53;;;10.20;99.90;;;;;;5027887;28;20631;-70
2022/12/26 07:39:25;;;;;;;1.87;1.33;;;10.20;99.90;;;;;;5026916;28;20637;-71
2022/12/26 07:41:58;;;;;;;1.10;1.10;;;8.90;99.90;;;;;;5026744;28;20627;-70
2022/12/26 07:44:25;;;;;;;6.33;1.30;;;10.30;99.90;;;;;;5028684;28;20702;-70
2022/12/26 07:46:52;;;;;;;1.57;1.17;;;10.30;99.90;;;;;;5028993;28;20633;-69
2022/12/26 07:49:20;;;;;;;3.50;1.40;;;10.80;99.90;;;;;;5026589;28;20624;-69
2022/12/26 07:51:47;;;;;;;1.67;1.00;;;10.10;99.90;;;;;;5029695;28;20701;-69
2022/12/26 07:54:15;;;;;;;0.70;0.70;;;9.90;99.90;;;;;;5025477;28;20686;-69
2022/12/26 07:56:42;;;;;;;0.63;0.63;;;10.30;99.90;;;;;;5027181;28;21228;-69
2022/12/26 07:59:13;;;;;;;1.07;0.90;;;9.90;99.90;;;;;;5026207;28;20941;-69
2022/12/26 08:01:41;;;;;;;1.60;1.00;;;10.10;99.90;;;;;;5025580;28;21124;-70
2022/12/26 08:04:08;;;;;;;1.23;1.13;;;10.10;99.90;;;;;;5027509;28;20674;-69
2022/12/26 08:06:36;;;;;;;1.57;1.47;;;10.10;99.90;;;;;;5026143;28;21137;-70
2022/12/26 08:09:03;;;;;;;0.90;0.90;;;9.90;99.90;;;;;;5029477;28;20642;-69
2022/12/26 08:11:33;;;;;;;0.53;0.53;;;10.10;99.90;;;;;;5025894;28;21002;-70
2022/12/26 08:14:00;;;;;;;2.57;1.90;;;10.10;99.90;;;;;;5027949;28;20666;-70
2022/12/26 08:16:28;;;;;;;0.80;0.80;;;10.00;99.90;;;;;;5026435;28;20634;-70
2022/12/26 08:18:54;;;;;;;0.50;0.50;;;10.00;99.90;;;;;;5028048;28;21352;-69
2022/12/26 08:21:21;;;;;;;1.30;1.10;;;11.50;99.90;;;;;;5025412;28;20635;-69
2022/12/26 08:23:49;;;;;;;3.17;1.93;;;9.80;99.90;;;;;;5026262;28;20984;-70
2022/12/26 08:26:21;;;;;;;1.10;1.10;;;9.60;99.90;;;;;;5026611;28;20616;-69
2022/12/26 08:28:48;;;;;;;1.80;1.70;;;9.80;99.90;;;;;;5025889;28;20642;-69
2022/12/26 08:31:15;;;;;;;2.20;1.50;;;;;;;;;;5025272;28;20627;-70
2022/12/26 08:33:42;;;;;;;2.93;1.80;;;9.80;99.90;;;;;;5028204;28;21024;-69
2022/12/26 08:36:11;;;;;;;2.07;1.27;;;9.70;99.90;;;;;;5029308;28;20662;-70
2022/12/26 08:38:39;;;;;;;2.50;1.40;;;9.80;99.90;;;;;;5026564;28;20635;-70
2022/12/26 08:41:08;;;;;;;0.83;0.83;;;9.80;99.90;;;;;;5030399;28;20628;-70
2022/12/26 08:43:34;;;;;;;2.33;2.03;;;9.80;99.90;;;;;;5026694;28;20625;-69
2022/12/26 08:46:04;;;;;;;4.87;1.67;;;10.00;99.90;;;;;;5027229;28;20634;-70
2022/12/26 08:48:32;;;;;;;2.40;1.67;;;9.80;99.90;;;;;;5027050;28;20619;-69
2022/12/26 08:51:00;;;;;;;1.67;1.33;;;9.70;99.90;;;;;;5038023;28;20701;-70
2022/12/26 08:53:28;;;;;;;2.30;0.60;;;9.80;99.90;;;;;;5027728;28;21235;-69
2022/12/26 08:55:56;;;;;;;1.80;1.70;;;9.90;99.90;;;;;;5031349;28;20630;-69
2022/12/26 08:58:24;;;;;;;2.27;2.07;;;9.50;99.90;;;;;;5042111;28;20631;-70
2022/12/26 09:00:51;;;;;;;1.83;1.70;;;9.50;99.90;;;;;;5026905;28;20658;-69
2022/12/26 09:03:18;;;;;;;1.23;1.17;;;9.70;99.90;;;;;;5039932;28;20628;-69
2022/12/26 09:05:45;;;;;;;1.07;1.00;;;9.70;99.90;;;;;;5028598;28;20634;-69
2022/12/26 09:08:12;;;;;;;1.60;1.23;;;9.60;99.90;;;;;;5027342;28;20635;-69
2022/12/26 09:10:39;;;;;;;0.70;0.67;;;9.40;99.90;;;;;;5028843;28;20630;-69
2022/12/26 09:13:06;;;;;;;1.30;1.10;;;9.70;99.90;;;;;;5046182;28;20662;-69
2022/12/26 09:15:34;;;;;;;0.93;0.93;;;10.10;99.90;;;;;;5041961;28;20627;-69
2022/12/26 09:18:01;;;;;;;1.30;0.90;;;9.70;99.90;;;;;;5027374;28;20742;-70
2022/12/26 09:20:27;;;;;;;0.80;0.80;;;10.40;99.90;;;;;;5027263;28;20634;-69
2022/12/26 09:22:54;;;;;;;0.80;0.73;;;9.50;99.90;;;;;;5022544;28;20631;-69
2022/12/26 09:25:24;;;;;;;1.50;0.93;;;10.00;99.90;;;;;;5026679;28;21157;-69
2022/12/26 09:27:53;;;;;;;0.83;0.83;;;9.80;99.90;;;;;;5026619;28;20741;-70
2022/12/26 09:30:21;;;;;;;1.50;1.30;;;9.60;99.90;;;;;;5036283;28;20637;-69
2022/12/26 09:32:49;;;;;;;1.43;1.17;;;9.80;99.90;;;;;;5027138;28;21203;-69
2022/12/26 09:35:16;;;;;;;0.97;0.70;;;10.70;99.90;;;;;;5036337;28;20693;-69
2022/12/26 09:37:43;;;;;;;2.23;1.60;;;9.80;99.90;;;;;;5026517;28;20651;-69
2022/12/26 09:40:21;;;;;;;1.53;1.43;;;9.80;99.90;;;;;;5030192;28;20635;-72
2022/12/26 09:42:57;;;;;;;0.70;0.70;;;9.70;99.90;;;;;;5031728;28;20638;-69
2022/12/26 09:45:35;;;;;;;2.30;1.33;;;9.90;99.90;;;;;;5029504;28;20645;-70
2022/12/26 09:48:09;;;;;;;1.00;0.90;;;9.30;99.90;;;;;;5028774;28;20984;-69
2022/12/26 09:50:37;;;;;;;2.00;1.83;;;10.00;99.90;;;;;;5030281;28;20623;-69
2022/12/26 09:53:07;;;;;;;2.88;2.40;;;9.70;99.90;;;;;;5028369;28;21440;-69
2022/12/26 09:55:39;;;;;;;2.13;1.23;;;9.50;99.90;;;;;;5030685;28;20622;-69
2022/12/26 09:58:14;;;;;;;2.40;1.50;;;9.90;99.90;;;;;;5028032;28;20635;-72
2022/12/26 10:00:48;;;;;;;0.80;0.80;;;9.80;99.90;;;;;;5028345;28;20623;-70
2022/12/26 10:03:16;;;;;;;3.07;1.73;;;9.80;99.90;;;;;;5018149;28;21155;-70
2022/12/26 10:06:06;;;;;;;2.20;2.00;;;9.50;99.90;;;;;;5047519;28;20657;-69
2022/12/26 10:08:45;;;;;;;2.07;1.40;;;9.70;99.90;;;;;;5029770;28;20638;-69
2022/12/26 10:11:21;;;;;;;1.77;1.37;;;9.80;99.90;;;;;;5028619;28;20622;-69
2022/12/26 10:13:52;;;;;;;1.60;1.50;;;9.50;99.90;;;;;;5027149;28;20769;-69
2022/12/26 10:16:23;;;;;;;1.50;1.40;;;9.60;99.90;;;;;;5030099;28;20207;-69
2022/12/26 10:19:02;;;;;;;5.70;2.37;;;9.50;99.90;;;;;;5029866;28;20630;-70
2022/12/26 10:21:40;;;;;;;10.87;1.70;;;9.60;99.90;;;;;;5044480;28;20633;-70
2022/12/26 10:24:14;;;;;;;2.63;1.27;;;9.60;99.90;;;;;;5020522;28;20639;-70
2022/12/26 10:26:45;;;;;;;1.93;1.47;;;9.40;99.90;;;;;;5027672;28;20627;-69
2022/12/26 10:29:18;;;;;;;2.27;1.40;;;9.30;99.90;;;;;;5026706;28;20626;-69
2022/12/26 10:31:51;;;;;;;1.83;1.60;;;9.50;99.90;;;;;;5029451;28;20765;-69
2022/12/26 10:34:23;;;;;;;1.27;1.17;;;9.40;99.90;;;;;;5028895;28;20677;-69
2022/12/26 10:36:52;;;;;;;2.23;2.03;;;9.40;99.90;;;;;;5029256;28;20622;-69
2022/12/26 10:39:23;;;;;;;2.40;1.77;;;9.50;99.90;;;;;;5028667;28;20653;-70
2022/12/26 10:41:52;;;;;;;3.60;1.80;;;9.50;99.90;;;;;;5031915;28;21341;-69
2022/12/26 10:44:20;;;;;;;1.10;1.00;;;9.50;99.90;;;;;;5020101;28;21012;-69
2022/12/26 10:47:21;;;;;;;1.20;1.20;;;9.60;99.90;;;;;;5022228;28;20639;-69
2022/12/26 10:49:50;;;;;;;1.77;1.37;;;9.60;99.90;;;;;;4947880;28;20717;-69
2022/12/26 10:52:18;;;;;;;1.50;1.40;;;9.60;99.90;;;;;;5013545;28;20635;-69
2022/12/26 10:54:46;;;;;;;2.90;2.33;;;9.80;99.90;;;;;;5027772;28;20662;-69
2022/12/26 10:57:13;;;;;;;2.53;1.70;;;9.70;99.90;;;;;;5029194;28;20619;-69
2022/12/26 10:59:43;;;;;;;2.50;1.63;;;9.70;99.90;;;;;;5028065;28;21218;-69
2022/12/26 11:02:22;;;;;;;1.50;1.40;;;9.70;99.90;;;;;;5037925;28;20633;-69
2022/12/26 11:05:09;;;;;;;1.57;1.47;;;9.70;99.90;;;;;;5038934;28;20619;-69
2022/12/26 11:07:38;;;;;;;2.37;0.90;;;9.70;99.90;;;;;;5028466;28;20740;-69
2022/12/26 11:10:14;;;;;;;1.00;0.90;;;9.70;99.90;;;;;;5036976;28;20626;-69
2022/12/26 11:12:48;;;;;;;0.87;0.77;;;9.70;99.90;;;;;;5017208;28;20627;-69
2022/12/26 11:15:23;;;;;;;0.83;0.83;;;10.30;99.90;;;;;;5031000;28;20710;-70
2022/12/26 11:17:52;;;;;;;0.70;0.60;;;9.70;99.90;;;;;;5026056;28;20629;-68
2022/12/26 11:20:30;;;;;;;0.53;0.50;;;9.70;99.90;;;;;;5028297;28;20722;-70
2022/12/26 11:23:19;;;;;;;0.60;0.60;;;9.70;99.90;;;;;;5042102;28;20626;-69
2022/12/26 11:25:49;;;;;;;0.70;0.70;;;9.70;99.90;;;;;;5043826;28;20679;-68
2022/12/26 11:28:31;;;;;;;0.40;0.37;;;9.00;99.90;;;;;;5027643;28;20628;-69
2022/12/26 11:30:59;;;;;;;0.40;0.40;;;9.50;99.90;;;;;;5034075;28;20615;-69
2022/12/26 11:33:29;;;;;;;0.60;0.60;;;9.70;99.90;;;;;;5030365;28;20625;-69
2022/12/26 11:36:06;;;;;;;1.17;1.00;;;9.70;99.90;;;;;;5044465;28;20725;-69
2022/12/26 11:38:43;;;;;;;0.50;0.37;;;9.70;99.90;;;;;;5028482;28;20709;-70
2022/12/26 11:43:59;;;;;;;0.87;0.70;;;9.70;99.90;;;;;;5030074;28;20627;-69
2022/12/26 11:46:35;;;;;;;0.73;0.73;;;9.70;99.90;;;;;;5030296;28;20623;-70
2022/12/26 11:49:02;;;;;;;1.03;0.67;;;9.70;99.90;;;;;;5041731;28;21186;-69
2022/12/26 11:51:40;;;;;;;0.83;0.53;;;9.90;99.90;;;;;;5038588;28;20642;-69
2022/12/26 11:54:24;;;;;;;0.77;0.70;;;9.70;99.90;;;;;;5028294;28;21008;-69
2022/12/26 11:57:09;;;;;;;0.90;0.67;;;9.80;99.90;;;;;;5033753;28;20631;-70
2022/12/26 11:59:35;;;;;;;1.02;0.82;;;9.80;99.90;;;;;;5027189;28;20849;-69
2022/12/26 12:02:23;;;;;;;11.43;1.00;;;9.70;99.90;;;;;;5036549;28;20768;-69
2022/12/26 12:04:51;;;;;;;0.37;0.37;;;9.70;99.90;;;;;;5025188;28;20635;-70
2022/12/26 12:07:51;;;;;;;0.40;0.40;;;9.50;99.90;;;;;;5034950;28;20983;-70
2022/12/26 12:11:03;;;;;;;0.60;0.60;;;9.70;99.90;;;;;;5007075;28;20631;-70
2022/12/26 12:13:49;;;;;;;0.60;0.60;;;9.60;99.90;;;;;;4986849;28;20657;-69
2022/12/26 12:16:39;;;;;;;0.50;0.37;;;9.80;99.90;;;;;;5018161;28;20634;-69
2022/12/26 12:19:20;;;;;;;8.43;0.77;;;9.80;99.90;;;;;;5026991;28;20627;-70
2022/12/26 12:22:01;;;;;;;0.60;0.50;;;9.80;99.90;;;;;;5027260;28;20634;-69
2022/12/26 12:24:47;;;;;;;0.50;0.30;;;9.80;99.90;;;;;;5025659;28;20628;-70
2022/12/26 12:27:21;;;;;;;1.10;1.00;;;10.00;99.90;;;;;;5044585;28;20654;-70
2022/12/26 12:30:03;;;;;;;0.70;0.70;;;9.90;99.90;;;;;;5032466;28;20630;-70
2022/12/26 12:32:42;;;;;;;3.90;1.20;;;10.00;99.90;;;;;;5025789;28;21185;-70
2022/12/26 12:35:25;;;;;;;1.50;0.70;;;10.10;99.90;;;;;;5032531;28;20658;-70
2022/12/26 12:38:10;;;;;;;0.60;0.47;;;10.00;99.90;;;;;;5038268;28;20623;-69
2022/12/26 12:40:48;;;;;;;0.50;0.50;;;9.90;99.90;;;;;;5013777;28;20972;-69
2022/12/26 12:43:22;;;;;;;0.73;0.30;;;9.90;99.90;;;;;;5018451;28;20638;-69
2022/12/26 12:45:58;;;;;;;0.30;0.20;;;9.90;99.90;;;;;;5027142;28;20629;-69
2022/12/26 12:48:43;;;;;;;1.50;1.07;;;9.90;99.90;;;;;;5027246;28;20649;-70
2022/12/26 12:51:20;;;;;;;2.00;0.93;;;9.90;99.90;;;;;;5024935;28;20626;-69
2022/12/26 12:54:06;;;;;;;0.60;0.60;;;9.90;99.90;;;;;;5040518;28;21264;-69
2022/12/26 12:56:43;;;;;;;0.40;0.30;;;10.00;99.90;;;;;;5039086;28;20637;-69
2022/12/26 12:59:23;;;;;;;0.50;0.50;;;10.00;99.90;;;;;;5036348;28;20626;-70
2022/12/26 13:01:55;;;;;;;0.40;0.30;;;10.10;99.90;;;;;;5044464;28;20630;-69
2022/12/26 13:04:26;;;;;;;0.87;0.83;;;10.00;99.90;;;;;;5038687;28;20636;-69
2022/12/26 13:06:56;;;;;;;0.30;0.30;;;10.10;99.90;;;;;;5026674;28;20673;-69
2022/12/26 13:09:28;;;;;;;0.40;0.37;;;10.10;99.90;;;;;;5032341;28;20737;-70
2022/12/26 13:12:00;;;;;;;0.40;0.30;;;10.00;99.90;;;;;;5045751;28;20636;-70
2022/12/26 13:14:31;;;;;;;0.50;0.40;;;10.00;99.90;;;;;;5040653;28;20685;-70
2022/12/26 13:17:03;;;;;;;0.77;0.30;;;9.90;99.90;;;;;;5029375;28;20623;-69
2022/12/26 13:19:37;;;;;;;0.30;0.30;;;9.90;99.90;;;;;;5030821;28;20642;-69
2022/12/26 13:22:13;;;;;;;0.50;0.50;;;9.90;99.90;;;;;;5029647;28;21032;-70
2022/12/26 13:24:43;;;;;;;0.60;0.60;;;9.90;99.90;;;;;;5028939;28;20630;-70
2022/12/26 13:27:16;;;;;;;0.97;0.60;;;10.10;99.90;;;;;;5041258;28;21238;-70
2022/12/26 13:29:44;;;;;;;1.40;1.30;;;9.90;99.90;;;;;;5032898;28;20621;-70
2022/12/26 13:32:19;;;;;;;0.80;0.80;;;10.00;99.90;;;;;;5043029;28;20672;-70
2022/12/26 13:34:47;;;;;;;0.53;0.50;;;9.90;99.90;;;;;;5032114;28;20729;-71
2022/12/26 13:37:47;;;;;;;0.30;0.30;;;9.90;99.90;;;;;;5030193;28;20629;-70
2022/12/26 13:40:17;;;;;;;0.43;0.20;;;9.40;99.90;;;;;;5017156;28;20697;-69
2022/12/26 13:46:00;;;;;;;0.30;0.30;;;10.00;99.90;;;;;;5030553;28;20631;-69
2022/12/26 13:48:56;;;;;;;1.33;0.97;;;10.00;99.90;;;;;;5027997;28;20630;-69
2022/12/26 13:51:49;;;;;;;1.13;1.03;;;9.90;99.90;;;;;;5035150;28;20637;-69
2022/12/26 13:54:17;;;;;;;0.70;0.40;;;9.80;99.90;;;;;;4999266;28;20651;-69
2022/12/26 13:57:16;;;;;;;0.73;0.73;;;9.70;99.90;;;;;;5049030;28;20660;-69
2022/12/26 14:00:02;;;;;;;0.67;0.60;;;10.50;99.90;;;;;;5030271;28;20699;-68
2022/12/26 14:02:54;;;;;;;0.40;0.37;;;9.80;99.90;;;;;;5029431;28;20626;-69
2022/12/26 14:05:26;;;;;;;0.70;0.60;;;9.70;99.90;;;;;;5033289;28;20631;-69
2022/12/26 14:07:59;;;;;;;0.73;0.50;;;9.80;99.90;;;;;;5033652;28;20635;-70
2022/12/26 14:10:33;;;;;;;0.63;0.60;;;9.80;99.90;;;;;;5032973;28;20626;-69
2022/12/26 14:13:11;;;;;;;2.20;0.90;;;9.90;99.90;;;;;;5031131;28;20639;-69
2022/12/26 14:15:50;;;;;;;2.30;0.50;;;9.80;99.90;;;;;;5026665;28;20667;-69
2022/12/26 14:18:33;;;;;;;0.97;0.97;;;9.70;99.90;;;;;;5029607;28;21514;-69
2022/12/26 14:21:22;;;;;;;0.30;0.20;;;9.30;99.90;;;;;;5028024;28;20621;-70
2022/12/26 14:23:55;;;;;;;0.30;0.27;;;9.70;99.90;;;;;;5009297;28;20620;-69
2022/12/26 14:26:35;;;;;;;0.70;0.53;;;9.70;99.90;;;;;;5022747;28;20629;-70
2022/12/26 14:29:11;;;;;;;0.40;0.40;;;9.50;99.90;;;;;;5021937;28;20623;-70
2022/12/26 14:31:43;;;;;;;1.60;1.50;;;9.60;99.90;;;;;;5025213;28;20626;-69
2022/12/26 14:34:24;;;;;;;0.53;0.47;;;9.80;99.90;;;;;;5032194;28;20619;-70
2022/12/26 14:36:58;;;;;;;0.90;0.70;;;9.70;99.90;;;;;;5028554;28;20642;-69
2022/12/26 14:39:37;;;;;;;1.60;0.87;;;9.70;99.90;;;;;;5045040;28;20633;-69
2022/12/26 14:45:35;;;;;;;0.57;0.57;;;9.60;99.90;;;;;;5026384;28;20658;-70
2022/12/26 14:48:24;;;;;;;1.70;0.77;;;9.50;99.90;;;;;;5027532;28;20655;-69
2022/12/26 14:50:53;;;;;;;0.40;0.27;;;9.60;99.90;;;;;;5025734;28;20973;-69
2022/12/26 14:53:34;;;;;;;0.93;0.53;;;9.60;99.90;;;;;;5027695;28;21059;-69
2022/12/26 14:56:02;;;;;;;0.87;0.87;;;10.00;99.90;;;;;;5028142;28;20667;-69
2022/12/26 14:58:39;;;;;;;0.77;0.50;;;10.40;99.90;;;;;;5027808;28;20650;-69
2022/12/26 15:01:46;;;;;;;0.50;0.47;;;9.60;99.90;;;;;;5027147;28;20623;-70
2022/12/26 15:04:54;;;;;;;0.40;0.30;;;9.50;99.90;;;;;;5022461;28;20730;-69
2022/12/26 15:07:47;;;;;;;0.60;0.60;;;9.60;99.90;;;;;;5026743;28;20729;-69
2022/12/26 15:10:56;;;;;;;0.60;0.37;;;9.60;99.90;;;;;;5028549;28;20627;-69
2022/12/26 15:13:47;;;;;;;0.80;0.30;;;9.50;99.90;;;;;;5016065;28;20624;-69
2022/12/26 15:16:29;;;;;;;0.30;0.30;;;9.30;99.90;;;;;;5008361;28;20701;-69
2022/12/26 15:19:29;;;;;;;1.13;0.63;;;9.60;99.90;;;;;;5016655;28;20634;-70
2022/12/26 15:22:37;;;;;;;0.40;0.40;;;9.40;99.90;;;;;;5013186;28;21093;-70
2022/12/26 15:25:41;;;;;;;0.40;0.30;;;9.20;99.90;;;;;;5028003;28;21211;-69
2022/12/26 15:28:47;;;;;;;0.40;0.30;;;9.40;99.90;;;;;;5037224;28;20629;-70
2022/12/26 15:31:32;;;;;;;1.00;0.30;;;9.40;99.90;;;;;;5026519;28;20642;-69
2022/12/26 15:34:05;;;;;;;0.40;0.40;;;9.30;99.90;;;;;;5026585;28;20629;-69
2022/12/26 15:36:43;;;;;;;0.37;0.30;;;9.30;99.90;;;;;;5025496;28;20682;-69
2022/12/26 15:39:24;;;;;;;0.90;0.43;;;9.20;99.90;;;;;;5030731;28;20629;-69
2022/12/26 15:42:02;;;;;;;0.40;0.30;;;9.30;99.90;;;;;;5025877;28;20995;-70